createdAt,value
2023-03-26T00:01:40.559Z,4.57
2023-03-26T00:04:08.241Z,4.38
2023-03-26T00:06:40.069Z,3.47
2023-03-26T00:09:10.868Z,3.42
2023-03-26T00:11:38.329Z,3.45
2023-03-26T00:14:05.847Z,3.85
2023-03-26T00:19:04.207Z,4.07
2023-03-26T00:21:32.010Z,4.28
2023-03-26T00:24:04.912Z,3.40
2023-03-26T00:26:39.870Z,3.53
2023-03-26T00:29:09.919Z,3.75
2023-03-26T00:31:42.519Z,4.00
2023-03-26T00:34:10.675Z,4.93
2023-03-26T00:36:42.383Z,4.80
2023-03-26T00:39:12.074Z,5.22
2023-03-26T00:41:43.275Z,5.18
2023-03-26T00:44:11.678Z,5.20
2023-03-26T00:46:39.446Z,5.10
2023-03-26T00:49:10.925Z,5.18
2023-03-26T00:51:39.521Z,5.97
2023-03-26T00:54:11.193Z,4.93
2023-03-26T00:56:38.948Z,4.22
2023-03-26T00:59:06.321Z,5.03
2023-03-26T01:01:36.320Z,4.05
2023-03-26T01:04:31.789Z,3.92
2023-03-26T01:07:09.588Z,4.57
2023-03-26T01:09:50.328Z,5.45
2023-03-26T01:12:25.855Z,4.28
2023-03-26T01:15:00.854Z,4.35
2023-03-26T01:17:34.368Z,4.45
2023-03-26T01:20:20.789Z,3.47
2023-03-26T01:22:58.325Z,3.92
2023-03-26T01:25:32.206Z,4.13
2023-03-26T01:30:42.448Z,3.42
2023-03-26T01:33:34.132Z,3.75
2023-03-26T01:36:13.662Z,3.53
2023-03-26T01:39:19.783Z,3.13
2023-03-26T01:42:03.086Z,3.42
2023-03-26T01:44:36.781Z,4.22
2023-03-26T01:47:07.998Z,2.67
2023-03-26T01:49:35.283Z,3.17
2023-03-26T01:52:02.496Z,2.95
2023-03-26T01:54:32.277Z,3.47
2023-03-26T01:57:27.150Z,4.00
2023-03-26T02:00:12.937Z,2.83
2023-03-26T02:03:03.306Z,4.20
2023-03-26T02:05:39.226Z,4.22
2023-03-26T02:08:23.633Z,3.97
2023-03-26T02:11:02.491Z,3.03
2023-03-26T02:13:30.390Z,3.33
2023-03-26T02:16:06.088Z,3.60
2023-03-26T02:18:39.205Z,3.53
2023-03-26T02:21:14.224Z,2.53
2023-03-26T02:23:48.691Z,2.38
2023-03-26T02:26:25.505Z,2.67
2023-03-26T02:28:54.434Z,2.70
2023-03-26T02:31:26.843Z,2.53
2023-03-26T02:33:57.056Z,2.08
2023-03-26T02:36:28.030Z,2.20
2023-03-26T02:39:02.989Z,1.73
2023-03-26T02:41:33.413Z,1.80
2023-03-26T02:44:00.953Z,2.50
2023-03-26T02:46:28.130Z,3.28
2023-03-26T02:48:59.717Z,2.97
2023-03-26T02:51:28.433Z,3.00
2023-03-26T02:53:56.396Z,2.50
2023-03-26T02:58:58.281Z,2.13
2023-03-26T03:01:26.480Z,2.13
2023-03-26T03:03:55.528Z,1.88
2023-03-26T03:06:23.667Z,1.90
2023-03-26T03:08:54.229Z,1.92
2023-03-26T03:11:29.978Z,1.90
2023-03-26T03:13:57.438Z,2.20
2023-03-26T03:18:58.254Z,1.88
2023-03-26T03:21:28.625Z,1.85
2023-03-26T03:24:00.002Z,3.28
2023-03-26T03:26:38.850Z,2.10
2023-03-26T03:29:07.372Z,2.22
2023-03-26T03:31:35.790Z,3.10
2023-03-26T03:34:04.181Z,2.75
2023-03-26T03:36:33.256Z,2.45
2023-03-26T03:39:02.834Z,2.15
2023-03-26T03:41:30.908Z,2.85
2023-03-26T03:43:59.943Z,2.28
2023-03-26T03:46:29.009Z,1.75
2023-03-26T03:48:57.622Z,2.50
2023-03-26T03:51:29.510Z,2.40
2023-03-26T03:53:56.830Z,2.15
2023-03-26T03:56:27.125Z,2.22
2023-03-26T03:58:56.356Z,2.42
2023-03-26T04:01:24.065Z,1.92
2023-03-26T04:03:53.408Z,1.90
2023-03-26T04:06:21.940Z,2.00
2023-03-26T04:08:49.097Z,2.40
2023-03-26T04:11:26.412Z,1.80
2023-03-26T04:13:56.100Z,1.80
2023-03-26T04:16:26.120Z,2.03
2023-03-26T04:18:53.587Z,1.90
2023-03-26T04:21:21.226Z,1.40
2023-03-26T04:23:48.590Z,2.28
2023-03-26T04:26:21.346Z,1.65
2023-03-26T04:28:56.823Z,1.45
2023-03-26T04:31:29.469Z,1.67
2023-03-26T04:34:07.987Z,1.65
2023-03-26T04:36:35.723Z,1.73
2023-03-26T04:39:05.317Z,1.52
2023-03-26T04:41:34.005Z,1.30
2023-03-26T04:44:02.214Z,1.50
2023-03-26T04:46:33.749Z,1.35
2023-03-26T04:49:02.047Z,1.42
2023-03-26T04:51:42.090Z,1.02
2023-03-26T04:54:14.476Z,1.02
2023-03-26T04:57:03.335Z,1.30
2023-03-26T04:59:37.268Z,1.30
2023-03-26T05:04:39.719Z,1.48
2023-03-26T05:07:07.605Z,1.52
2023-03-26T05:09:35.790Z,1.75
2023-03-26T05:12:03.825Z,1.58
2023-03-26T05:14:31.020Z,1.63
2023-03-26T05:16:58.939Z,2.00
2023-03-26T05:19:26.156Z,1.55
2023-03-26T05:21:53.520Z,1.65
2023-03-26T05:24:20.903Z,1.63
2023-03-26T05:26:48.046Z,1.35
2023-03-26T05:29:18.247Z,1.35
2023-03-26T05:31:45.433Z,1.70
2023-03-26T05:34:15.464Z,1.70
2023-03-26T05:36:45.128Z,1.50
2023-03-26T05:39:14.362Z,1.55
2023-03-26T05:41:41.557Z,1.35
2023-03-26T05:44:08.708Z,1.65
2023-03-26T05:46:38.141Z,1.63
2023-03-26T05:49:05.489Z,1.85
2023-03-26T05:51:32.611Z,1.63
2023-03-26T05:53:59.735Z,1.40
2023-03-26T05:56:26.894Z,1.58
2023-03-26T05:58:56.170Z,1.48
2023-03-26T06:01:35.693Z,1.75
2023-03-26T06:04:06.338Z,2.05
2023-03-26T06:06:53.260Z,1.42
2023-03-26T06:09:30.661Z,1.30
2023-03-26T06:12:16.744Z,1.35
2023-03-26T06:14:46.527Z,1.50
2023-03-26T06:17:16.750Z,1.80
2023-03-26T06:19:53.460Z,1.92
2023-03-26T06:22:24.498Z,2.30
2023-03-26T06:24:59.441Z,2.42
2023-03-26T06:27:37.889Z,1.75
2023-03-26T06:30:21.749Z,1.90
2023-03-26T06:32:58.797Z,2.00
2023-03-26T06:35:36.780Z,1.67
2023-03-26T06:38:16.448Z,1.90
2023-03-26T06:40:45.550Z,2.10
2023-03-26T06:43:25.458Z,2.58
2023-03-26T06:45:55.839Z,1.85
2023-03-26T06:48:23.110Z,2.15
2023-03-26T06:51:15.931Z,2.38
2023-03-26T06:53:44.652Z,2.13
2023-03-26T06:56:22.540Z,2.60
2023-03-26T06:58:51.685Z,2.90
2023-03-26T07:01:27.742Z,3.08
2023-03-26T07:04:00.920Z,3.40
2023-03-26T07:06:41.423Z,2.95
2023-03-26T07:09:14.281Z,3.10
2023-03-26T07:11:43.918Z,3.33
2023-03-26T07:14:13.471Z,4.57
2023-03-26T07:16:42.007Z,4.15
2023-03-26T07:19:09.356Z,4.22
2023-03-26T07:21:38.862Z,4.85
2023-03-26T07:24:17.897Z,4.88
2023-03-26T07:27:09.134Z,3.80
2023-03-26T07:29:52.772Z,4.40
2023-03-26T07:33:05.598Z,4.10
2023-03-26T07:36:11.706Z,4.63
2023-03-26T07:42:24.022Z,4.05
2023-03-26T07:45:39.426Z,3.70
2023-03-26T07:48:31.704Z,3.97
2023-03-26T07:51:00.695Z,4.28
2023-03-26T07:53:31.557Z,3.75
2023-03-26T07:56:38.286Z,3.78
2023-03-26T07:59:29.596Z,3.85
2023-03-26T08:03:04.434Z,4.38
2023-03-26T08:05:53.490Z,3.30
2023-03-26T08:08:53.002Z,3.47
2023-03-26T08:11:57.107Z,3.33
2023-03-26T08:15:10.016Z,4.35
2023-03-26T08:18:08.523Z,4.53
2023-03-26T08:21:03.710Z,4.38
2023-03-26T08:24:00.120Z,4.13
2023-03-26T08:26:52.952Z,3.72
2023-03-26T08:32:19.751Z,3.22
2023-03-26T08:34:53.741Z,3.47
2023-03-26T08:37:22.018Z,3.55
2023-03-26T08:39:54.574Z,3.70
2023-03-26T08:46:16.431Z,3.45
2023-03-26T08:49:26.272Z,3.75
2023-03-26T08:52:38.667Z,3.55
2023-03-26T08:59:04.480Z,3.47
2023-03-26T09:02:24.012Z,4.07
2023-03-26T09:05:58.024Z,3.72
2023-03-26T09:09:30.493Z,4.70
2023-03-26T09:12:42.734Z,4.40
2023-03-26T09:15:36.933Z,4.13
2023-03-26T09:18:33.985Z,3.67
2023-03-26T09:21:23.318Z,3.40
2023-03-26T09:24:17.902Z,2.40
2023-03-26T09:27:16.270Z,3.70
2023-03-26T09:30:38.355Z,2.05
2023-03-26T09:33:52.342Z,1.70
2023-03-26T09:37:06.773Z,2.33
2023-03-26T09:40:27.404Z,2.13
2023-03-26T09:43:34.200Z,1.55
2023-03-26T09:46:29.236Z,2.40
2023-03-26T09:49:47.528Z,3.53
2023-03-26T09:52:55.157Z,4.55
2023-03-26T09:55:35.505Z,5.88
2023-03-26T09:58:12.934Z,6.20
2023-03-26T10:01:13.580Z,6.93
2023-03-26T10:03:59.335Z,5.72
2023-03-26T10:06:47.149Z,5.68
2023-03-26T10:09:51.180Z,6.18
2023-03-26T10:12:57.627Z,8.32
2023-03-26T10:15:35.407Z,6.13
2023-03-26T10:18:26.691Z,6.95
2023-03-26T10:22:00.920Z,6.13
2023-03-26T10:25:02.954Z,4.25
2023-03-26T10:27:36.596Z,5.07
2023-03-26T10:33:03.732Z,5.78
2023-03-26T10:35:44.677Z,4.72
2023-03-26T10:38:43.720Z,5.57
2023-03-26T10:44:44.542Z,4.63
2023-03-26T10:50:29.357Z,2.60
2023-03-26T10:53:31.903Z,2.65
2023-03-26T10:56:32.902Z,2.13
2023-03-26T10:59:14.337Z,2.50
2023-03-26T11:03:10.292Z,2.10
2023-03-26T11:05:46.794Z,3.15
2023-03-26T11:08:39.873Z,1.73
2023-03-26T11:11:55.930Z,2.38
2023-03-26T11:14:56.491Z,1.88
2023-03-26T11:18:06.993Z,2.03
2023-03-26T11:24:42.604Z,1.70
2023-03-26T11:28:29.449Z,1.90
2023-03-26T11:31:39.485Z,2.53
2023-03-26T11:34:31.519Z,2.03
2023-03-26T11:37:16.549Z,2.22
2023-03-26T11:39:57.741Z,1.60
2023-03-26T11:42:26.240Z,1.70
2023-03-26T11:45:32.963Z,1.30
2023-03-26T11:51:40.419Z,2.00
2023-03-26T11:54:14.386Z,1.42
2023-03-26T11:57:21.449Z,1.58
2023-03-26T12:00:17.819Z,1.40
2023-03-26T12:02:59.843Z,2.38
2023-03-26T12:05:51.512Z,1.58
2023-03-26T12:08:41.755Z,1.55
2023-03-26T12:11:14.787Z,2.22
2023-03-26T12:13:55.368Z,1.40
2023-03-26T12:16:25.466Z,1.92
2023-03-26T12:19:27.392Z,1.85
2023-03-26T12:21:58.867Z,1.20
2023-03-26T12:24:34.845Z,1.30
2023-03-26T12:27:22.722Z,1.20
2023-03-26T12:30:31.553Z,1.30
2023-03-26T12:33:07.661Z,1.85
2023-03-26T12:35:37.475Z,1.00
2023-03-26T12:38:34.488Z,0.82
2023-03-26T12:44:45.139Z,1.42
2023-03-26T12:44:48.895Z,1.20
2023-03-26T12:47:57.823Z,1.08
2023-03-26T12:50:45.934Z,1.33
2023-03-26T12:53:44.766Z,1.25
2023-03-26T12:59:32.117Z,1.40
2023-03-26T13:02:55.217Z,1.42
2023-03-26T13:05:35.529Z,2.20
2023-03-26T13:09:22.055Z,1.55
2023-03-26T13:12:26.299Z,1.58
2023-03-26T13:15:01.113Z,2.20
2023-03-26T13:18:32.427Z,2.13
2023-03-26T13:21:18.235Z,1.20
2023-03-26T13:24:07.312Z,2.42
2023-03-26T13:27:10.279Z,1.30
2023-03-26T13:30:05.242Z,1.10
2023-03-26T13:32:50.868Z,1.83
2023-03-26T13:35:34.095Z,1.27
2023-03-26T13:38:40.172Z,1.45
2023-03-26T13:41:56.849Z,1.80
2023-03-26T13:44:42.471Z,1.30
2023-03-26T13:47:51.884Z,1.63
2023-03-26T13:50:44.778Z,1.00
2023-03-26T13:53:24.860Z,1.80
2023-03-26T13:56:05.807Z,1.00
2023-03-26T13:58:43.348Z,1.40
2023-03-26T14:01:23.327Z,0.52
2023-03-26T14:07:21.330Z,1.45
2023-03-26T14:10:22.912Z,1.40
2023-03-26T14:13:20.511Z,1.13
2023-03-26T14:16:17.089Z,1.73
2023-03-26T14:19:31.020Z,1.23
2023-03-26T14:22:32.788Z,1.35
2023-03-26T14:25:38.422Z,1.23
2023-03-26T14:29:03.456Z,2.60
2023-03-26T14:31:45.084Z,2.42
2023-03-26T14:34:40.335Z,1.27
2023-03-26T14:37:27.986Z,0.85
2023-03-26T14:40:15.074Z,1.27
2023-03-26T14:42:47.232Z,0.85
2023-03-26T14:45:27.517Z,0.80
2023-03-26T14:48:34.120Z,0.95
2023-03-26T14:52:08.687Z,0.80
2023-03-26T14:54:47.258Z,0.75
2023-03-26T14:57:51.079Z,1.20
2023-03-26T15:00:42.257Z,1.60
2023-03-26T15:03:16.668Z,0.68
2023-03-26T15:06:06.752Z,0.57
2023-03-26T15:09:19.207Z,1.05
2023-03-26T15:12:12.534Z,0.85
2023-03-26T15:15:03.006Z,0.85
2023-03-26T15:18:10.450Z,1.52
2023-03-26T15:21:11.232Z,1.10
2023-03-26T15:24:53.570Z,1.15
2023-03-26T15:27:52.360Z,0.82
2023-03-26T15:31:01.140Z,1.05
2023-03-26T15:33:54.774Z,0.70
2023-03-26T15:36:56.111Z,0.73
2023-03-26T15:39:59.056Z,1.25
2023-03-26T15:42:43.046Z,1.08
2023-03-26T15:45:41.003Z,0.70
2023-03-26T15:48:13.910Z,1.10
2023-03-26T15:51:12.173Z,0.90
2023-03-26T15:53:42.089Z,0.88
2023-03-26T15:57:09.906Z,0.70
2023-03-26T15:59:52.984Z,0.98
2023-03-26T16:03:17.782Z,0.88
2023-03-26T16:06:28.647Z,1.00
2023-03-26T16:09:39.037Z,0.90
2023-03-26T16:12:13.240Z,1.58
2023-03-26T16:15:11.251Z,1.30
2023-03-26T16:18:20.411Z,1.05
2023-03-26T16:20:51.165Z,0.80
2023-03-26T16:23:34.693Z,0.75
2023-03-26T16:26:57.936Z,2.05
2023-03-26T16:29:29.985Z,1.40
2023-03-26T16:32:18.495Z,1.00
2023-03-26T16:35:19.370Z,1.27
2023-03-26T16:38:11.865Z,1.10
2023-03-26T16:41:03.791Z,0.80
2023-03-26T16:43:54.021Z,0.75
2023-03-26T16:48:24.353Z,1.23
2023-03-26T16:51:32.775Z,0.90
2023-03-26T16:54:46.852Z,1.10
2023-03-26T16:57:38.651Z,1.20
2023-03-26T17:01:10.069Z,0.77
2023-03-26T17:04:09.891Z,1.27
2023-03-26T17:06:48.520Z,0.85
2023-03-26T17:09:38.172Z,1.20
2023-03-26T17:12:39.001Z,0.80
2023-03-26T17:15:41.222Z,1.05
2023-03-26T17:18:42.059Z,0.90
2023-03-26T17:21:45.932Z,1.10
2023-03-26T17:24:44.725Z,1.50
2023-03-26T17:28:00.138Z,0.70
2023-03-26T17:30:51.906Z,1.20
2023-03-26T17:33:23.814Z,0.70
2023-03-26T17:36:12.108Z,0.93
2023-03-26T17:38:39.201Z,1.40
2023-03-26T17:41:09.443Z,1.52
2023-03-26T17:43:51.296Z,1.73
2023-03-26T17:46:48.339Z,3.30
2023-03-26T17:49:27.124Z,8.65
2023-03-26T17:52:15.869Z,1.33
2023-03-26T17:54:49.299Z,1.00
2023-03-26T17:57:44.375Z,1.48
2023-03-26T18:00:25.666Z,1.45
2023-03-26T18:03:20.683Z,1.58
2023-03-26T18:05:49.283Z,1.95
2023-03-26T18:09:06.337Z,1.77
2023-03-26T18:12:50.126Z,1.55
2023-03-26T18:15:56.405Z,2.35
2023-03-26T18:18:37.495Z,1.13
2023-03-26T18:21:07.393Z,1.23
2023-03-26T18:23:48.033Z,1.45
2023-03-26T18:26:23.971Z,2.00
2023-03-26T18:28:54.825Z,1.75
2023-03-26T18:31:27.117Z,2.42
2023-03-26T18:34:06.857Z,1.90
2023-03-26T18:36:35.017Z,1.65
2023-03-26T18:39:04.540Z,1.75
2023-03-26T18:41:42.177Z,2.35
2023-03-26T18:44:20.910Z,1.52
2023-03-26T18:46:56.600Z,2.22
2023-03-26T18:49:28.647Z,1.95
2023-03-26T18:51:57.672Z,1.88
2023-03-26T18:54:34.314Z,1.55
2023-03-26T18:57:19.526Z,1.80
2023-03-26T18:59:51.847Z,2.22
2023-03-26T19:02:22.091Z,4.50
2023-03-26T19:04:58.418Z,1.58
2023-03-26T19:07:27.010Z,1.42
2023-03-26T19:09:56.941Z,1.40
2023-03-26T19:12:32.633Z,1.52
2023-03-26T19:15:08.078Z,1.52
2023-03-26T19:17:48.875Z,2.50
2023-03-26T19:20:32.849Z,1.83
2023-03-26T19:23:00.499Z,1.83
2023-03-26T19:25:44.525Z,1.80
2023-03-26T19:28:21.547Z,2.33
2023-03-26T19:31:07.383Z,2.30
2023-03-26T19:33:43.216Z,3.72
2023-03-26T19:36:15.477Z,1.52
2023-03-26T19:38:59.316Z,2.10
2023-03-26T19:41:43.794Z,2.60
2023-03-26T19:44:28.889Z,2.10
2023-03-26T19:47:29.274Z,2.53
2023-03-26T19:50:26.023Z,2.53
2023-03-26T19:53:22.623Z,2.72
2023-03-26T19:56:19.809Z,2.00
2023-03-26T19:59:03.767Z,2.58
2023-03-26T20:01:39.790Z,2.45
2023-03-26T20:04:11.675Z,2.65
2023-03-26T20:06:43.742Z,3.65
2023-03-26T20:09:13.619Z,2.80
2023-03-26T20:11:41.393Z,2.65
2023-03-26T20:14:26.119Z,2.30
2023-03-26T20:16:54.058Z,2.65
2023-03-26T20:19:21.615Z,3.13
2023-03-26T20:21:55.909Z,3.03
2023-03-26T20:24:24.928Z,3.65
2023-03-26T20:26:52.489Z,3.60
2023-03-26T20:31:51.080Z,2.50
2023-03-26T20:34:23.908Z,2.67
2023-03-26T20:37:01.380Z,3.60
2023-03-26T20:39:29.103Z,3.10
2023-03-26T20:41:56.590Z,4.25
2023-03-26T20:44:26.928Z,3.72
2023-03-26T20:46:56.634Z,4.13
2023-03-26T20:52:40.537Z,4.65
2023-03-26T20:55:15.837Z,5.03
2023-03-26T20:57:46.412Z,3.78
2023-03-26T21:00:22.628Z,3.70
2023-03-26T21:02:53.728Z,3.67
2023-03-26T21:05:25.157Z,4.93
2023-03-26T21:07:55.478Z,3.75
2023-03-26T21:10:26.103Z,4.45
2023-03-26T21:13:06.167Z,4.50
2023-03-26T21:15:34.186Z,3.30
2023-03-26T21:18:01.910Z,3.58
2023-03-26T21:20:29.995Z,4.22
2023-03-26T21:23:15.458Z,4.07
2023-03-26T21:26:25.419Z,4.88
2023-03-26T21:28:55.140Z,4.88
2023-03-26T21:31:24.664Z,4.68
2023-03-26T21:33:52.296Z,4.20
2023-03-26T21:36:20.698Z,5.82
2023-03-26T21:38:48.338Z,5.93
2023-03-26T21:44:04.476Z,4.40
2023-03-26T21:46:33.571Z,6.30
2023-03-26T21:49:01.642Z,7.05
2023-03-26T21:51:30.329Z,7.38
2023-03-26T21:53:57.958Z,6.43
2023-03-26T21:57:08.006Z,5.50
2023-03-26T21:59:53.487Z,7.00
2023-03-26T22:02:55.100Z,6.07
2023-03-26T22:05:57.640Z,5.30
2023-03-26T22:08:38.974Z,9.27
2023-03-26T22:13:56.517Z,8.05
2023-03-26T22:17:01.167Z,6.75
2023-03-26T22:19:19.369Z,5.63
2023-03-26T22:22:09.671Z,5.47
2023-03-26T22:24:37.108Z,6.70
2023-03-26T22:27:04.641Z,5.20
2023-03-26T22:32:04.814Z,5.28
2023-03-26T22:34:35.178Z,4.63
2023-03-26T22:37:02.548Z,5.47
2023-03-26T22:39:29.934Z,5.38
2023-03-26T22:41:57.698Z,5.07
2023-03-26T22:44:25.048Z,5.97
2023-03-26T22:46:52.644Z,7.43
2023-03-26T22:49:24.194Z,5.53
2023-03-26T22:51:51.713Z,6.20
2023-03-26T22:59:30.631Z,5.40
2023-03-26T23:02:17.960Z,4.70
2023-03-26T23:04:46.587Z,4.82
2023-03-26T23:07:29.805Z,5.25
2023-03-26T23:09:58.103Z,5.65
2023-03-26T23:12:25.363Z,4.80
2023-03-26T23:14:55.046Z,5.18
2023-03-26T23:17:33.298Z,4.53
2023-03-26T23:20:01.403Z,4.95
2023-03-26T23:22:32.803Z,4.30
2023-03-26T23:25:00.126Z,5.20
2023-03-26T23:27:28.226Z,4.65
2023-03-26T23:29:56.100Z,4.03
2023-03-26T23:32:25.373Z,4.28
2023-03-26T23:34:56.150Z,4.82
2023-03-26T23:37:25.697Z,4.78
2023-03-26T23:39:54.896Z,4.50
2023-03-26T23:42:29.205Z,4.18
2023-03-26T23:44:57.730Z,4.70
2023-03-26T23:47:34.672Z,4.45
2023-03-26T23:50:04.378Z,5.07
2023-03-26T23:52:31.912Z,4.68
2023-03-26T23:55:02.510Z,4.50
2023-03-26T23:57:30.833Z,4.38
2023-03-26T23:59:58.496Z,3.92
